ENGC

Gullfax Platform Airport

Norway
METAR ENGC 190720Z 26009KT 9999 FEW017 13/09 Q1019 W12/S2
Observed Flight Rules
Jul-19 @ 07:20 UTC (21 minutes ago) Visual Flight Rules
Wind Visibility Clouds
260° at 9 knots 10,000+ meters
  • Few at 1,700' AGL
Temperatures Readings
Current 13°C / 55°F
Dewpoint 9°C / 48°F
Humidity 77%
Altimeter 30.09" Hg
Pressure 1019 hPa
Elevation 10
METAR ENGC 190720Z 26009KT 9999 FEW017 13/09 Q1019 W12/S2
Observed Flight Rules
Jul-19 @ 07:20 UTC
(21 minutes ago)
VFR
Wind Visibility
260° at 9 knots 10,000+ meters
Clouds
  • Few at 1,700' AGL
Temperature Dewpoint
13°C / 55°F 9°C / 48°F
Humidity Altimeter Pressure
77% 30.09" Hg 1019 hPa